Time;durP1;ratioP1;P1;durP2;ratioP2;P2;SDS_P1;SDS_P2;PMS_P1;PMS_P2;Temp;Humidity;BMP_temperature;BMP_pressure;BME280_temperature;BME280_humidity;BME280_pressure;Samples;Min_cycle;Max_cycle;Signal;HPM_P1;HPM_P2
2023/08/25 00:01:05;;;;;;;11.38;3.67;;;;;;;;;;5094696;28;20241;-93
2023/08/25 00:03:32;;;;;;;7.50;3.10;;;;;;;;;;5095303;28;20293;-93
2023/08/25 00:06:01;;;;;;;6.53;3.25;;;;;;;;;;5095306;28;20281;-93
2023/08/25 00:08:29;;;;;;;11.38;3.22;;;;;;;;;;5094842;28;20226;-93
2023/08/25 00:10:56;;;;;;;7.45;3.33;;;;;;;;;;5094298;28;20628;-93
2023/08/25 00:13:23;;;;;;;6.57;3.00;;;;;;;;;;5094063;28;20190;-91
2023/08/25 00:15:51;;;;;;;6.03;3.13;;;;;;;;;;5093401;28;20200;-92
2023/08/25 00:18:18;;;;;;;9.48;3.50;;;;;;;;;;5078010;28;20726;-93
2023/08/25 00:20:45;;;;;;;8.77;3.20;;;;;;;;;;5073885;28;20278;-93
2023/08/25 00:23:14;;;;;;;5.28;3.03;;;;;;;;;;5074098;28;20199;-94
2023/08/25 00:25:44;;;;;;;6.85;2.97;;;;;;;;;;5074212;28;20218;-95
2023/08/25 00:28:12;;;;;;;7.40;3.30;;;;;;;;;;5074671;28;20249;-92
2023/08/25 00:30:39;;;;;;;9.50;3.00;;;;;;;;;;5078589;28;20190;-94
2023/08/25 00:33:06;;;;;;;9.77;3.50;;;;;;;;;;5094261;28;20190;-93
2023/08/25 00:35:34;;;;;;;6.20;2.90;;;;;;;;;;5094050;28;20202;-93
2023/08/25 00:38:01;;;;;;;6.47;2.45;;;;;;;;;;5094196;28;20234;-93
2023/08/25 00:40:35;;;;;;;8.15;2.78;;;;;;;;;;5094043;28;20285;-92
2023/08/25 00:43:03;;;;;;;5.53;2.30;;;;;;;;;;5093749;28;20221;-95
2023/08/25 00:45:31;;;;;;;5.80;2.60;;;;;;;;;;5094785;28;20201;-93
2023/08/25 00:47:59;;;;;;;6.43;2.55;;;;;;;;;;5094467;28;20233;-93
2023/08/25 00:50:26;;;;;;;3.88;2.20;;;;;;;;;;5094209;28;20196;-94
2023/08/25 00:52:53;;;;;;;5.22;2.50;;;;;;;;;;5094070;28;20218;-93
2023/08/25 00:55:21;;;;;;;6.07;2.30;;;;;;;;;;5093329;28;20234;-94
2023/08/25 00:57:50;;;;;;;5.03;2.40;;;;;;;;;;5093975;28;20199;-92
2023/08/25 01:00:17;;;;;;;4.30;1.85;;;;;;;;;;5094157;28;20183;-92
2023/08/25 01:02:44;;;;;;;7.00;2.38;;;;;;;;;;5092900;28;20209;-92
2023/08/25 01:05:12;;;;;;;5.53;2.47;;;;;;;;;;5094441;28;20237;-92
2023/08/25 01:07:39;;;;;;;5.55;2.00;;;;;;;;;;5093628;28;20226;-93
2023/08/25 01:10:08;;;;;;;6.13;2.30;;;;;;;;;;5093512;28;20232;-93
2023/08/25 01:12:39;;;;;;;7.03;2.50;;;;;;;;;;5094228;28;20259;-92
2023/08/25 01:15:13;;;;;;;7.82;2.45;;;;;;;;;;5094605;28;20277;-92
2023/08/25 01:17:42;;;;;;;8.07;2.47;;;;;;;;;;5093419;28;20934;-92
2023/08/25 01:20:11;;;;;;;7.95;2.15;;;;;;;;;;5094238;28;20293;-92
2023/08/25 01:22:45;;;;;;;4.95;2.40;;;;;;;;;;5093771;28;20721;-90
2023/08/25 01:25:33;;;;;;;7.60;2.60;;;;;;;;;;5093753;28;20223;-92
2023/08/25 01:28:01;;;;;;;4.97;2.50;;;;;;;;;;5093477;28;20269;-91
2023/08/25 01:30:30;;;;;;;6.45;2.70;;;;;;;;;;5093892;28;20191;-91
2023/08/25 01:32:58;;;;;;;5.93;2.60;;;;;;;;;;5094456;28;20635;-91
2023/08/25 01:35:28;;;;;;;7.13;3.05;;;;;;;;;;5093602;28;20189;-93
2023/08/25 01:38:01;;;;;;;4.43;2.38;;;;;;;;;;5093340;28;20191;-93
2023/08/25 01:40:33;;;;;;;6.05;2.60;;;;;;;;;;5094215;28;20199;-93
2023/08/25 01:43:02;;;;;;;4.93;2.80;;;;;;;;;;5094147;28;20233;-92
2023/08/25 01:45:30;;;;;;;4.90;2.35;;;;;;;;;;5093826;28;20214;-92
2023/08/25 01:47:58;;;;;;;5.20;2.70;;;;;;;;;;5093399;28;20286;-92
2023/08/25 01:50:26;;;;;;;7.93;2.75;;;;;;;;;;5093525;28;20217;-92
2023/08/25 01:52:53;;;;;;;5.30;2.63;;;;;;;;;;5093194;28;20226;-93
2023/08/25 01:55:21;;;;;;;7.68;2.65;;;;;;;;;;5093771;28;20226;-91
2023/08/25 01:57:50;;;;;;;7.95;2.70;;;;;;;;;;5097352;28;20183;-93
2023/08/25 02:00:19;;;;;;;5.15;2.75;;;;;;;;;;5096874;28;20234;-91
2023/08/25 02:02:47;;;;;;;3.97;2.30;;;;;;;;;;5097087;28;20716;-92
2023/08/25 02:05:14;;;;;;;8.80;2.67;;;;;;;;;;5096998;28;20183;-92
2023/08/25 02:07:42;;;;;;;4.38;2.88;;;;;;;;;;5097053;28;20190;-92
2023/08/25 02:10:09;;;;;;;6.07;2.75;;;;;;;;;;5096985;28;20286;-92
2023/08/25 02:12:37;;;;;;;7.03;2.63;;;;;;;;;;5097502;28;20220;-92
2023/08/25 02:15:07;;;;;;;4.43;2.65;;;;;;;;;;5097331;28;20611;-91
2023/08/25 02:17:34;;;;;;;7.32;2.63;;;;;;;;;;5085875;28;20207;-93
2023/08/25 02:20:04;;;;;;;4.30;2.70;;;;;;;;;;5076774;28;20281;-92
2023/08/25 02:22:31;;;;;;;5.13;2.40;;;;;;;;;;5078565;28;20229;-91
2023/08/25 02:24:59;;;;;;;4.50;2.63;;;;;;;;;;5076881;28;20288;-92
2023/08/25 02:27:26;;;;;;;4.85;2.80;;;;;;;;;;5076714;28;20294;-92
2023/08/25 02:29:54;;;;;;;5.72;2.78;;;;;;;;;;5076970;28;20222;-92
2023/08/25 02:32:23;;;;;;;5.97;2.50;;;;;;;;;;5075830;28;20754;-92
2023/08/25 02:34:51;;;;;;;6.05;2.40;;;;;;;;;;5076704;28;20191;-92
2023/08/25 02:37:18;;;;;;;6.35;2.85;;;;;;;;;;5076403;28;20278;-93
2023/08/25 02:39:46;;;;;;;6.55;2.70;;;;;;;;;;5076416;28;20282;-91
2023/08/25 02:42:14;;;;;;;5.28;2.72;;;;;;;;;;5075871;28;20241;-92
2023/08/25 02:44:41;;;;;;;7.05;2.75;;;;;;;;;;5076439;28;20290;-90
2023/08/25 02:47:08;;;;;;;5.30;2.50;;;;;;;;;;5075799;28;20281;-90
2023/08/25 02:49:38;;;;;;;7.60;3.00;;;;;;;;;;5076035;28;20643;-92
2023/08/25 02:52:06;;;;;;;6.78;2.80;;;;;;;;;;5076309;28;20202;-91
2023/08/25 02:54:33;;;;;;;4.68;2.70;;;;;;;;;;5076379;28;20254;-94
2023/08/25 02:57:02;;;;;;;5.03;2.83;;;;;;;;;;5075847;28;20191;-90
2023/08/25 02:59:29;;;;;;;7.25;3.25;;;;;;;;;;5075537;28;20278;-93
2023/08/25 03:01:57;;;;;;;8.20;3.80;;;;;;;;;;5076446;28;20198;-91
2023/08/25 03:04:24;;;;;;;6.63;3.35;;;;;;;;;;5075688;28;20287;-92
2023/08/25 03:06:54;;;;;;;7.63;3.90;;;;;;;;;;5075724;28;20202;-92
2023/08/25 03:09:22;;;;;;;6.20;3.20;;;;;;;;;;5075596;28;20215;-92
2023/08/25 03:11:49;;;;;;;6.80;3.10;;;;;;;;;;5075342;28;20187;-92
2023/08/25 03:14:18;;;;;;;11.55;3.47;;;;;;;;;;5075499;28;20241;-92
2023/08/25 03:16:45;;;;;;;10.25;3.65;;;;;;;;;;5079307;28;20183;-91
2023/08/25 03:19:13;;;;;;;10.13;3.90;;;;;;;;;;5095256;28;20227;-92
2023/08/25 03:21:40;;;;;;;10.18;4.15;;;;;;;;;;5095829;28;20225;-92
2023/08/25 03:24:09;;;;;;;6.60;3.28;;;;;;;;;;5095805;28;20214;-93
2023/08/25 03:26:37;;;;;;;8.13;3.40;;;;;;;;;;5095591;28;20226;-93
2023/08/25 03:29:04;;;;;;;9.00;3.63;;;;;;;;;;5096226;28;20230;-93
2023/08/25 03:31:32;;;;;;;9.40;3.20;;;;;;;;;;5096030;28;20198;-93
2023/08/25 03:33:59;;;;;;;9.70;3.55;;;;;;;;;;5095301;28;20206;-93
2023/08/25 03:36:27;;;;;;;8.88;3.63;;;;;;;;;;5095546;28;20277;-93
2023/08/25 03:38:54;;;;;;;8.43;4.10;;;;;;;;;;5095389;28;20203;-93
2023/08/25 03:41:23;;;;;;;7.85;3.92;;;;;;;;;;5095341;28;20225;-92
2023/08/25 03:43:50;;;;;;;6.03;3.65;;;;;;;;;;5095573;28;20615;-93
2023/08/25 03:46:18;;;;;;;11.73;4.05;;;;;;;;;;5095136;28;20226;-93
2023/08/25 03:48:45;;;;;;;7.72;3.65;;;;;;;;;;5094871;28;20259;-93
2023/08/25 03:51:13;;;;;;;7.82;3.78;;;;;;;;;;5095420;28;20206;-91
2023/08/25 03:53:40;;;;;;;9.90;4.15;;;;;;;;;;5094574;28;20233;-92
2023/08/25 03:56:08;;;;;;;6.68;3.83;;;;;;;;;;5095011;28;20195;-92
2023/08/25 03:58:37;;;;;;;6.30;3.20;;;;;;;;;;5095412;28;20690;-90
2023/08/25 04:01:04;;;;;;;10.18;4.15;;;;;;;;;;5095380;28;20749;-92
2023/08/25 04:03:32;;;;;;;9.95;4.05;;;;;;;;;;5095085;28;20277;-93
2023/08/25 04:05:59;;;;;;;8.85;3.95;;;;;;;;;;5094860;28;20269;-92
2023/08/25 04:08:27;;;;;;;9.45;3.40;;;;;;;;;;5094630;28;20258;-93
2023/08/25 04:10:54;;;;;;;6.63;3.20;;;;;;;;;;5094410;28;20226;-90
2023/08/25 04:13:21;;;;;;;7.72;3.30;;;;;;;;;;5094759;28;20194;-93
2023/08/25 04:15:56;;;;;;;7.32;3.60;;;;;;;;;;5094721;28;20703;-92
2023/08/25 04:18:24;;;;;;;10.98;3.58;;;;;;;;;;5095634;28;20223;-93
2023/08/25 04:20:51;;;;;;;13.45;4.13;;;;;;;;;;5094825;28;20266;-92
2023/08/25 04:23:19;;;;;;;7.88;2.90;;;;;;;;;;5094486;28;20248;-92
2023/08/25 04:25:46;;;;;;;4.35;2.92;;;;;;;;;;5094946;28;20258;-93
2023/08/25 04:28:14;;;;;;;6.70;2.90;;;;;;;;;;5094783;28;20667;-93
2023/08/25 04:30:41;;;;;;;8.38;2.60;;;;;;;;;;5094922;28;20619;-92
2023/08/25 04:33:11;;;;;;;7.80;2.90;;;;;;;;;;5094743;28;20273;-93
2023/08/25 04:35:38;;;;;;;7.18;2.80;;;;;;;;;;5093904;28;20199;-91
2023/08/25 04:38:05;;;;;;;9.10;2.90;;;;;;;;;;5094108;28;20281;-93
2023/08/25 04:40:33;;;;;;;10.00;3.08;;;;;;;;;;5094375;28;20293;-93
2023/08/25 04:43:00;;;;;;;5.93;2.35;;;;;;;;;;5094682;28;20230;-93
2023/08/25 04:45:27;;;;;;;10.13;2.55;;;;;;;;;;5094494;28;20194;-91
2023/08/25 04:47:55;;;;;;;7.00;2.50;;;;;;;;;;5093619;28;20212;-92
2023/08/25 04:50:24;;;;;;;6.72;2.42;;;;;;;;;;5093965;28;20317;-93
2023/08/25 04:52:51;;;;;;;7.55;2.45;;;;;;;;;;5094335;28;20214;-92
2023/08/25 04:55:19;;;;;;;10.25;2.97;;;;;;;;;;5093661;28;20237;-93
2023/08/25 04:57:46;;;;;;;5.45;2.35;;;;;;;;;;5094265;28;20652;-93
2023/08/25 05:00:14;;;;;;;6.80;2.60;;;;;;;;;;5093795;28;20222;-92
2023/08/25 05:02:42;;;;;;;6.38;2.63;;;;;;;;;;5094411;28;20287;-93
2023/08/25 05:05:11;;;;;;;9.25;2.70;;;;;;;;;;5078681;28;20694;-93
2023/08/25 05:07:40;;;;;;;9.07;2.40;;;;;;;;;;5073548;28;20194;-92
2023/08/25 05:10:09;;;;;;;5.85;2.20;;;;;;;;;;5073959;28;20239;-93
2023/08/25 05:12:36;;;;;;;5.90;2.50;;;;;;;;;;5073665;28;20202;-92
2023/08/25 05:15:04;;;;;;;7.25;2.30;;;;;;;;;;5073369;28;20203;-92
2023/08/25 05:17:31;;;;;;;7.40;2.47;;;;;;;;;;5084449;28;20276;-92
2023/08/25 05:19:59;;;;;;;9.77;2.63;;;;;;;;;;5093865;28;20230;-92
2023/08/25 05:22:26;;;;;;;5.30;1.65;;;;;;;;;;5094403;28;20218;-92
2023/08/25 05:24:55;;;;;;;6.47;2.15;;;;;;;;;;5093826;28;20229;-92
2023/08/25 05:27:23;;;;;;;6.95;2.15;;;;;;;;;;5093465;28;20217;-92
2023/08/25 05:29:50;;;;;;;9.05;2.47;;;;;;;;;;5094905;28;20226;-92
2023/08/25 05:32:18;;;;;;;9.45;2.70;;;;;;;;;;5097366;28;20240;-91
2023/08/25 05:34:45;;;;;;;8.98;2.35;;;;;;;;;;5097387;28;20194;-90
2023/08/25 05:37:13;;;;;;;3.65;2.13;;;;;;;;;;5097895;28;20277;-91
2023/08/25 05:39:40;;;;;;;6.28;2.10;;;;;;;;;;5097700;28;20233;-91
2023/08/25 05:42:09;;;;;;;9.90;2.50;;;;;;;;;;5097326;28;20263;-92
2023/08/25 05:44:37;;;;;;;8.63;2.20;;;;;;;;;;5097419;28;20229;-90
2023/08/25 05:47:04;;;;;;;5.55;2.00;;;;;;;;;;5101967;28;20222;-93
2023/08/25 05:49:32;;;;;;;7.47;2.15;;;;;;;;;;5086659;28;20242;-96
2023/08/25 05:51:59;;;;;;;5.95;2.30;;;;;;;;;;5079624;28;20278;-92
2023/08/25 05:54:26;;;;;;;11.70;2.58;;;;;;;;;;5078922;28;20672;-93
2023/08/25 05:56:54;;;;;;;6.43;2.10;;;;;;;;;;5077399;28;20218;-95
2023/08/25 05:59:23;;;;;;;5.28;2.10;;;;;;;;;;5076664;28;20199;-92
2023/08/25 06:01:51;;;;;;;6.88;2.35;;;;;;;;;;5076933;28;20233;-95
2023/08/25 06:04:18;;;;;;;6.70;1.98;;;;;;;;;;5093216;28;20202;-90
2023/08/25 06:06:46;;;;;;;7.00;2.60;;;;;;;;;;5097395;28;20285;-92
2023/08/25 06:09:15;;;;;;;8.25;2.35;;;;;;;;;;5097250;28;20198;-92
2023/08/25 06:11:43;;;;;;;10.35;2.30;;;;;;;;;;5096997;28;20230;-92
2023/08/25 06:14:11;;;;;;;7.30;2.30;;;;;;;;;;5087438;28;20202;-93
2023/08/25 06:16:41;;;;;;;6.45;2.10;;;;;;;;;;5076706;28;20195;-94
2023/08/25 06:19:09;;;;;;;8.02;2.47;;;;;;;;;;5076778;28;20287;-94
2023/08/25 06:21:36;;;;;;;6.35;1.92;;;;;;;;;;5075399;28;20210;-93
2023/08/25 06:24:04;;;;;;;6.57;2.45;;;;;;;;;;5076215;28;20191;-93
2023/08/25 06:26:32;;;;;;;6.47;2.00;;;;;;;;;;5076418;28;20205;-91
2023/08/25 06:29:00;;;;;;;6.68;2.25;;;;;;;;;;5091469;28;20233;-91
2023/08/25 06:31:30;;;;;;;8.23;2.10;;;;;;;;;;5087281;28;20230;-96
2023/08/25 06:33:59;;;;;;;10.30;2.35;;;;;;;;;;5098317;28;20198;-93
2023/08/25 06:36:27;;;;;;;6.85;1.90;;;;;;;;;;5097988;28;20256;-95
2023/08/25 06:38:54;;;;;;;11.43;2.35;;;;;;;;;;5111719;28;20298;-92
2023/08/25 06:41:21;;;;;;;5.63;2.55;;;;;;;;;;5115935;28;20255;-94
2023/08/25 06:43:48;;;;;;;8.50;2.00;;;;;;;;;;5117035;27;20247;-95
2023/08/25 06:46:16;;;;;;;4.55;1.80;;;;;;;;;;5109811;28;20210;-95
2023/08/25 06:48:43;;;;;;;5.20;1.88;;;;;;;;;;5095984;28;20216;-94
2023/08/25 06:51:12;;;;;;;6.40;2.10;;;;;;;;;;5096056;28;20226;-94
2023/08/25 06:53:39;;;;;;;5.03;1.65;;;;;;;;;;5095945;28;20336;-93
2023/08/25 06:56:06;;;;;;;4.80;1.73;;;;;;;;;;5096561;28;20191;-92
2023/08/25 06:58:34;;;;;;;6.70;1.83;;;;;;;;;;5096451;28;20644;-94
2023/08/25 07:01:02;;;;;;;4.72;1.73;;;;;;;;;;5096242;28;20278;-92
2023/08/25 07:03:29;;;;;;;6.82;2.22;;;;;;;;;;5095767;28;20281;-93
2023/08/25 07:05:58;;;;;;;5.10;2.03;;;;;;;;;;5095821;28;20194;-93
2023/08/25 07:08:26;;;;;;;3.92;1.83;;;;;;;;;;5095988;28;20279;-93
2023/08/25 07:10:54;;;;;;;6.35;1.60;;;;;;;;;;5095310;28;20222;-93
2023/08/25 07:13:21;;;;;;;4.90;1.67;;;;;;;;;;5095668;28;20203;-93
2023/08/25 07:15:49;;;;;;;6.07;1.55;;;;;;;;;;5095488;28;20290;-94
2023/08/25 07:18:16;;;;;;;7.90;1.83;;;;;;;;;;5095620;28;20198;-93
2023/08/25 07:20:43;;;;;;;6.70;1.88;;;;;;;;;;5095886;28;20252;-93
2023/08/25 07:23:10;;;;;;;5.45;1.60;;;;;;;;;;5095618;28;20240;-93
2023/08/25 07:25:43;;;;;;;5.63;1.75;;;;;;;;;;5095149;28;20247;-95
2023/08/25 07:28:10;;;;;;;6.93;1.70;;;;;;;;;;5095167;28;20244;-93
2023/08/25 07:30:38;;;;;;;4.32;1.60;;;;;;;;;;5094836;28;20258;-92
2023/08/25 07:33:07;;;;;;;6.97;1.45;;;;;;;;;;5095569;28;20194;-94
2023/08/25 07:35:35;;;;;;;5.07;1.60;;;;;;;;;;5096278;28;20195;-95
2023/08/25 07:38:03;;;;;;;5.82;1.55;;;;;;;;;;5094822;28;20274;-94
2023/08/25 07:40:31;;;;;;;7.90;1.83;;;;;;;;;;5094707;28;20199;-94
2023/08/25 07:43:02;;;;;;;3.70;1.67;;;;;;;;;;5095141;28;20195;-91
2023/08/25 07:45:29;;;;;;;3.05;1.35;;;;;;;;;;5094520;28;20198;-93
2023/08/25 07:47:59;;;;;;;5.88;1.58;;;;;;;;;;5094485;28;20207;-92
2023/08/25 07:50:26;;;;;;;5.53;1.85;;;;;;;;;;5094678;28;20230;-92
2023/08/25 07:52:54;;;;;;;6.47;1.70;;;;;;;;;;5095141;28;20285;-94
2023/08/25 07:55:22;;;;;;;3.05;1.63;;;;;;;;;;5094337;28;20583;-93
2023/08/25 07:57:49;;;;;;;3.17;1.42;;;;;;;;;;5095360;28;20647;-94
2023/08/25 08:00:19;;;;;;;4.38;1.35;;;;;;;;;;5094618;28;20229;-90
2023/08/25 08:02:46;;;;;;;4.93;1.80;;;;;;;;;;5094699;28;20216;-89
2023/08/25 08:05:14;;;;;;;3.90;1.60;;;;;;;;;;5094722;28;20198;-91
2023/08/25 08:07:43;;;;;;;5.75;1.33;;;;;;;;;;5085775;28;20203;-92
2023/08/25 08:10:12;;;;;;;5.05;1.30;;;;;;;;;;5087090;28;20581;-93
2023/08/25 08:12:42;;;;;;;3.60;1.23;;;;;;;;;;5086316;27;20235;-95
2023/08/25 08:15:10;;;;;;;3.10;1.40;;;;;;;;;;5082260;28;20337;-93
2023/08/25 08:17:39;;;;;;;2.90;1.13;;;;;;;;;;5095252;28;20683;-93
2023/08/25 08:20:12;;;;;;;4.53;1.33;;;;;;;;;;5095522;28;20655;-95
2023/08/25 08:22:39;;;;;;;3.38;1.02;;;;;;;;;;5097472;28;20198;-94
2023/08/25 08:25:09;;;;;;;4.28;1.20;;;;;;;;;;5095918;28;20230;-93
2023/08/25 08:27:37;;;;;;;3.28;1.05;;;;;;;;;;5099180;28;20221;-96
2023/08/25 08:30:05;;;;;;;3.25;1.20;;;;;;;;;;5103440;28;20656;-92
2023/08/25 08:32:32;;;;;;;3.35;0.95;;;;;;;;;;5095687;28;20236;-92
2023/08/25 08:35:03;;;;;;;4.18;1.17;;;;;;;;;;5083862;28;20259;-93
2023/08/25 08:37:31;;;;;;;2.08;1.10;;;;;;;;;;5075636;28;20256;-96
2023/08/25 08:39:58;;;;;;;4.60;1.23;;;;;;;;;;5082986;28;20290;-94
2023/08/25 08:42:26;;;;;;;3.85;1.10;;;;;;;;;;5094514;28;20226;-95
2023/08/25 08:44:54;;;;;;;5.88;1.35;;;;;;;;;;5094440;28;20214;-87
2023/08/25 08:47:22;;;;;;;5.35;1.33;;;;;;;;;;5090912;28;20198;-90
2023/08/25 08:49:50;;;;;;;2.67;1.10;;;;;;;;;;5073529;28;20187;-93
2023/08/25 08:52:19;;;;;;;3.28;1.20;;;;;;;;;;5073133;28;20667;-90
2023/08/25 08:54:47;;;;;;;3.70;1.10;;;;;;;;;;5071739;28;20590;-90
2023/08/25 08:57:15;;;;;;;2.83;1.08;;;;;;;;;;5085075;28;20198;-89
2023/08/25 08:59:42;;;;;;;2.78;1.00;;;;;;;;;;5092317;28;20199;-89
2023/08/25 09:02:10;;;;;;;3.75;1.02;;;;;;;;;;5092998;28;20620;-87
2023/08/25 09:04:39;;;;;;;2.92;0.90;;;;;;;;;;5073047;28;20229;-90
2023/08/25 09:07:07;;;;;;;3.38;0.90;;;;;;;;;;5084522;28;20198;-90
2023/08/25 09:09:36;;;;;;;3.33;1.20;;;;;;;;;;5092790;28;20248;-89
2023/08/25 09:12:04;;;;;;;2.85;1.15;;;;;;;;;;5079150;28;20354;-89
2023/08/25 09:14:31;;;;;;;2.72;0.95;;;;;;;;;;5092671;28;20202;-89
2023/08/25 09:17:01;;;;;;;4.43;0.90;;;;;;;;;;5085375;28;20245;-88
2023/08/25 09:19:30;;;;;;;2.30;1.20;;;;;;;;;;5071443;28;20281;-88
2023/08/25 09:21:57;;;;;;;3.60;1.00;;;;;;;;;;5071754;28;21768;-86
2023/08/25 09:24:25;;;;;;;2.38;1.00;;;;;;;;;;5069835;28;20199;-85
2023/08/25 09:26:54;;;;;;;2.83;1.00;;;;;;;;;;5079895;28;20962;-86
2023/08/25 09:29:22;;;;;;;2.15;0.98;;;;;;;;;;5091561;28;20202;-86
2023/08/25 09:31:50;;;;;;;2.25;0.93;;;;;;;;;;5091304;28;20574;-87
2023/08/25 09:34:17;;;;;;;3.13;1.35;;;;;;;;;;5091876;28;20252;-86
2023/08/25 09:36:51;;;;;;;2.60;1.00;;;;;;;;;;5091449;28;20225;-86
2023/08/25 09:39:19;;;;;;;2.70;0.90;;;;;;;;;;5091104;28;20567;-86
2023/08/25 09:41:46;;;;;;;2.70;1.08;;;;;;;;;;5089769;28;20194;-87
2023/08/25 09:44:15;;;;;;;1.85;0.88;;;;;;;;;;5091602;28;20536;-86
2023/08/25 09:46:42;;;;;;;2.55;1.00;;;;;;;;;;5091569;28;20674;-87
2023/08/25 09:49:12;;;;;;;3.28;0.93;;;;;;;;;;5091700;28;20230;-86
2023/08/25 09:51:41;;;;;;;3.17;1.08;;;;;;;;;;5091348;28;20253;-87
2023/08/25 09:54:09;;;;;;;2.13;0.90;;;;;;;;;;5091285;28;20241;-88
2023/08/25 09:56:37;;;;;;;2.40;1.10;;;;;;;;;;5092524;28;20190;-87
2023/08/25 09:59:05;;;;;;;1.55;0.80;;;;;;;;;;5091898;28;20218;-89
2023/08/25 10:01:35;;;;;;;4.55;1.05;;;;;;;;;;5092259;28;20217;-89
2023/08/25 10:04:03;;;;;;;3.33;1.30;;;;;;;;;;5092465;28;20277;-89
2023/08/25 10:06:31;;;;;;;3.22;1.08;;;;;;;;;;5091972;28;20191;-88
2023/08/25 10:08:59;;;;;;;3.78;1.10;;;;;;;;;;5092354;28;20194;-87
2023/08/25 10:11:29;;;;;;;2.47;0.90;;;;;;;;;;5084386;28;20219;-86
2023/08/25 10:13:57;;;;;;;2.63;1.00;;;;;;;;;;5083084;28;20298;-89
2023/08/25 10:16:26;;;;;;;2.65;1.00;;;;;;;;;;5092408;28;20288;-87
2023/08/25 10:18:57;;;;;;;3.38;1.10;;;;;;;;;;5076148;28;20218;-89
2023/08/25 10:21:26;;;;;;;4.53;1.35;;;;;;;;;;5075881;28;20214;-88
2023/08/25 10:23:54;;;;;;;2.90;1.13;;;;;;;;;;5076426;28;20577;-88
2023/08/25 10:26:22;;;;;;;2.17;0.95;;;;;;;;;;5087192;28;20213;-90
2023/08/25 10:28:50;;;;;;;3.75;1.08;;;;;;;;;;5093662;28;20625;-92
2023/08/25 10:31:18;;;;;;;3.58;1.00;;;;;;;;;;5095863;28;20314;-90
2023/08/25 10:33:49;;;;;;;3.42;1.50;;;;;;;;;;5096396;28;20209;-92
2023/08/25 10:36:19;;;;;;;2.00;0.85;;;;;;;;;;5095675;28;20968;-91
2023/08/25 10:38:47;;;;;;;2.47;0.82;;;;;;;;;;5094535;28;20754;-88
2023/08/25 10:41:20;;;;;;;2.80;1.00;;;;;;;;;;5086328;28;20251;-89
2023/08/25 10:43:48;;;;;;;2.60;1.00;;;;;;;;;;5095510;28;20226;-88
2023/08/25 10:46:18;;;;;;;3.53;1.10;;;;;;;;;;5085948;28;20718;-90
2023/08/25 10:48:47;;;;;;;2.33;1.02;;;;;;;;;;5091018;28;20226;-90
2023/08/25 10:51:19;;;;;;;2.03;1.08;;;;;;;;;;5090847;28;20254;-93
2023/08/25 10:53:47;;;;;;;3.53;1.30;;;;;;;;;;5095244;28;20226;-96
2023/08/25 10:56:15;;;;;;;3.30;1.08;;;;;;;;;;5101864;28;20194;-92
2023/08/25 10:58:43;;;;;;;4.75;1.30;;;;;;;;;;5100818;28;20292;-95
2023/08/25 11:01:11;;;;;;;3.92;1.10;;;;;;;;;;5098336;28;20255;-96
2023/08/25 11:03:48;;;;;;;2.28;1.05;;;;;;;;;;5098125;28;20203;-95
2023/08/25 11:06:46;;;;;;;3.13;1.23;;;;;;;;;;5099862;28;20255;-96
2023/08/25 11:09:37;;;;;;;2.72;1.10;;;;;;;;;;5097869;28;20247;-95
2023/08/25 11:12:07;;;;;;;3.00;1.02;;;;;;;;;;5101287;28;20218;-96
2023/08/25 11:14:35;;;;;;;2.88;1.17;;;;;;;;;;5099708;28;20190;-96
2023/08/25 11:17:12;;;;;;;3.47;1.17;;;;;;;;;;5103563;28;20251;-96
2023/08/25 11:19:40;;;;;;;3.78;1.00;;;;;;;;;;5102217;28;20540;-95
2023/08/25 11:22:11;;;;;;;2.45;0.98;;;;;;;;;;5097736;28;20253;-93
2023/08/25 11:24:39;;;;;;;3.63;1.00;;;;;;;;;;5097530;28;20569;-96
2023/08/25 11:27:06;;;;;;;4.57;1.38;;;;;;;;;;5097074;28;20580;-94
2023/08/25 11:29:34;;;;;;;2.97;1.15;;;;;;;;;;5097280;28;20251;-94
2023/08/25 11:32:01;;;;;;;2.10;1.00;;;;;;;;;;5095097;28;20238;-95
2023/08/25 11:34:31;;;;;;;2.30;1.00;;;;;;;;;;5096133;28;20201;-93
2023/08/25 11:36:58;;;;;;;4.50;1.15;;;;;;;;;;5095364;28;20662;-94
2023/08/25 11:39:27;;;;;;;2.42;1.00;;;;;;;;;;5094811;28;20702;-93
2023/08/25 11:41:55;;;;;;;3.17;0.90;;;;;;;;;;5095253;28;20244;-91
2023/08/25 11:44:23;;;;;;;4.10;1.20;;;;;;;;;;5095619;28;20222;-93
2023/08/25 11:46:51;;;;;;;3.92;0.98;;;;;;;;;;5094763;28;20202;-91
2023/08/25 11:49:19;;;;;;;2.47;1.08;;;;;;;;;;5095055;28;20205;-92
2023/08/25 11:51:46;;;;;;;2.22;1.00;;;;;;;;;;5095790;28;20327;-95
2023/08/25 11:54:13;;;;;;;3.88;1.20;;;;;;;;;;5089559;28;20323;-93
2023/08/25 11:56:50;;;;;;;4.18;0.95;;;;;;;;;;5087763;28;20285;-95
2023/08/25 11:59:17;;;;;;;2.72;0.90;;;;;;;;;;5074236;28;20233;-94
2023/08/25 12:01:45;;;;;;;2.90;1.30;;;;;;;;;;5074029;28;20195;-94
2023/08/25 12:04:23;;;;;;;2.70;1.00;;;;;;;;;;5074653;28;20283;-94
2023/08/25 12:06:52;;;;;;;2.00;0.85;;;;;;;;;;5074339;28;20286;-94
2023/08/25 12:09:21;;;;;;;3.70;1.20;;;;;;;;;;5074311;28;20309;-93
2023/08/25 12:11:50;;;;;;;2.55;0.82;;;;;;;;;;5074291;28;20272;-92
2023/08/25 12:14:27;;;;;;;3.10;0.90;;;;;;;;;;5074391;28;20246;-91
2023/08/25 12:16:54;;;;;;;4.57;1.02;;;;;;;;;;5074275;28;20199;-92
2023/08/25 12:19:24;;;;;;;3.97;1.10;;;;;;;;;;5076823;28;20231;-92
2023/08/25 12:21:52;;;;;;;5.47;1.10;;;;;;;;;;5087172;28;20209;-93
2023/08/25 12:24:19;;;;;;;3.08;0.90;;;;;;;;;;5084383;28;20294;-92
2023/08/25 12:26:46;;;;;;;2.72;1.20;;;;;;;;;;5094775;28;20191;-92
2023/08/25 12:29:15;;;;;;;1.92;0.98;;;;;;;;;;5094305;28;20694;-94
2023/08/25 12:31:42;;;;;;;2.17;0.88;;;;;;;;;;5093656;28;20210;-93
2023/08/25 12:34:09;;;;;;;2.80;0.95;;;;;;;;;;5094399;28;20206;-92
2023/08/25 12:36:37;;;;;;;2.38;1.02;;;;;;;;;;5094166;28;20203;-94
2023/08/25 12:39:05;;;;;;;3.45;0.93;;;;;;;;;;5077702;28;20232;-94
2023/08/25 12:41:32;;;;;;;2.40;1.10;;;;;;;;;;5073956;28;20253;-91
2023/08/25 12:44:01;;;;;;;3.35;1.15;;;;;;;;;;5074215;28;20255;-90
2023/08/25 12:46:30;;;;;;;2.83;1.05;;;;;;;;;;5073524;28;20257;-93
2023/08/25 12:48:57;;;;;;;2.75;0.90;;;;;;;;;;5073548;28;20278;-93
2023/08/25 12:51:25;;;;;;;2.35;0.90;;;;;;;;;;5073987;28;20252;-92
2023/08/25 12:53:52;;;;;;;2.40;0.88;;;;;;;;;;5073191;28;20239;-91
2023/08/25 12:56:19;;;;;;;2.22;0.82;;;;;;;;;;5073808;28;20298;-89
2023/08/25 12:58:46;;;;;;;1.65;0.88;;;;;;;;;;5073419;28;20222;-90
2023/08/25 13:01:14;;;;;;;1.42;0.80;;;;;;;;;;5073960;28;20690;-93
2023/08/25 13:03:42;;;;;;;4.20;0.90;;;;;;;;;;5073692;28;20227;-92
2023/08/25 13:06:09;;;;;;;2.50;0.93;;;;;;;;;;5073970;28;20191;-90
2023/08/25 13:08:37;;;;;;;2.30;1.00;;;;;;;;;;5073676;28;20656;-92
2023/08/25 13:11:04;;;;;;;2.40;0.70;;;;;;;;;;5073662;28;20187;-92
2023/08/25 13:13:32;;;;;;;2.25;0.73;;;;;;;;;;5072913;28;20318;-95
2023/08/25 13:16:00;;;;;;;3.92;0.93;;;;;;;;;;5073688;28;20207;-91
2023/08/25 13:18:28;;;;;;;2.72;1.00;;;;;;;;;;5073379;28;20250;-95
2023/08/25 13:20:57;;;;;;;3.15;0.77;;;;;;;;;;5072449;28;20195;-92
2023/08/25 13:23:24;;;;;;;2.90;1.00;;;;;;;;;;5072737;28;20678;-94
2023/08/25 13:25:51;;;;;;;2.47;0.88;;;;;;;;;;5074399;28;20203;-94
2023/08/25 13:28:19;;;;;;;2.58;1.20;;;;;;;;;;5073893;28;20202;-93
2023/08/25 13:30:46;;;;;;;2.17;1.10;;;;;;;;;;5073385;28;20691;-94
2023/08/25 13:33:13;;;;;;;1.88;1.00;;;;;;;;;;5073819;28;20223;-94
2023/08/25 13:35:41;;;;;;;2.25;1.10;;;;;;;;;;5086370;28;20190;-94
2023/08/25 13:38:11;;;;;;;2.80;1.08;;;;;;;;;;5094392;28;20263;-93
2023/08/25 13:40:39;;;;;;;2.70;0.98;;;;;;;;;;5096313;28;20259;-95
2023/08/25 13:43:06;;;;;;;2.83;1.05;;;;;;;;;;5094891;28;20198;-93
2023/08/25 13:45:34;;;;;;;1.48;0.88;;;;;;;;;;5094595;28;20281;-93
2023/08/25 13:48:02;;;;;;;2.88;1.10;;;;;;;;;;5094537;28;20209;-95
2023/08/25 13:50:29;;;;;;;2.17;0.90;;;;;;;;;;5095183;28;20194;-92
2023/08/25 13:52:56;;;;;;;2.88;1.00;;;;;;;;;;5097566;28;20314;-91
2023/08/25 13:55:25;;;;;;;2.28;0.93;;;;;;;;;;5096597;28;20234;-93
2023/08/25 13:57:52;;;;;;;3.97;1.10;;;;;;;;;;5096760;28;20219;-93
2023/08/25 14:00:20;;;;;;;2.53;0.80;;;;;;;;;;5096594;28;20845;-92
2023/08/25 14:02:48;;;;;;;2.00;0.88;;;;;;;;;;5097193;28;20620;-89
2023/08/25 14:05:17;;;;;;;1.73;0.70;;;;;;;;;;5096464;28;20225;-90
2023/08/25 14:07:45;;;;;;;1.85;0.75;;;;;;;;;;5096549;28;20281;-91
2023/08/25 14:10:12;;;;;;;3.33;0.80;;;;;;;;;;5096763;28;20281;-90
2023/08/25 14:12:43;;;;;;;2.47;1.10;;;;;;;;;;5096489;28;20275;-90
2023/08/25 14:15:11;;;;;;;2.67;1.02;;;;;;;;;;5096771;28;20568;-89
2023/08/25 14:17:38;;;;;;;1.98;1.13;;;;;;;;;;5096528;28;20206;-90
2023/08/25 14:20:06;;;;;;;3.80;0.80;;;;;;;;;;5096768;28;20240;-89
2023/08/25 14:22:34;;;;;;;2.38;0.80;;;;;;;;;;5096145;28;20195;-93
2023/08/25 14:25:01;;;;;;;4.70;0.80;;;;;;;;;;5096508;28;20723;-91
2023/08/25 14:27:29;;;;;;;1.73;0.75;;;;;;;;;;5096292;28;20229;-92
2023/08/25 14:29:57;;;;;;;2.30;0.95;;;;;;;;;;5096671;28;20206;-91
2023/08/25 14:32:25;;;;;;;2.53;0.82;;;;;;;;;;5096531;28;20305;-91
2023/08/25 14:34:52;;;;;;;2.70;0.98;;;;;;;;;;5096254;28;20229;-90
2023/08/25 14:37:19;;;;;;;3.63;1.45;;;;;;;;;;5096158;28;20225;-90
2023/08/25 14:39:46;;;;;;;2.00;0.70;;;;;;;;;;5096528;28;20198;-92
2023/08/25 14:42:14;;;;;;;3.20;0.93;;;;;;;;;;5095881;28;20230;-91
2023/08/25 14:44:41;;;;;;;1.92;0.80;;;;;;;;;;5096491;28;20643;-93
2023/08/25 14:47:10;;;;;;;2.53;0.75;;;;;;;;;;5096267;28;20733;-91
2023/08/25 14:49:37;;;;;;;3.20;0.80;;;;;;;;;;5096202;28;20206;-89